createdAt,value
2019-03-25T00:02:24.773Z,3.80
2019-03-25T00:04:53.401Z,3.87
2019-03-25T00:07:21.972Z,2.83
2019-03-25T00:09:50.614Z,5.97
2019-03-25T00:12:19.182Z,5.73
2019-03-25T00:14:47.827Z,8.27
2019-03-25T00:17:16.395Z,8.40
2019-03-25T00:19:45.038Z,6.17
2019-03-25T00:22:13.606Z,5.53
2019-03-25T00:24:42.199Z,8.00
2019-03-25T00:27:10.758Z,6.30
2019-03-25T00:29:39.350Z,6.93
2019-03-25T00:32:07.918Z,4.30
2019-03-25T00:34:36.559Z,7.70
2019-03-25T00:37:05.274Z,7.90
2019-03-25T00:39:33.838Z,4.53
2019-03-25T00:42:02.414Z,7.63
2019-03-25T00:44:30.978Z,6.13
2019-03-25T00:46:59.554Z,7.13
2019-03-25T00:49:28.192Z,6.67
2019-03-25T00:51:56.774Z,9.47
2019-03-25T00:54:25.348Z,4.47
2019-03-25T00:56:53.934Z,6.43
2019-03-25T00:59:23.477Z,5.43
2019-03-25T01:01:52.068Z,4.23
2019-03-25T01:04:20.644Z,8.43
2019-03-25T01:06:49.274Z,3.50
2019-03-25T01:09:17.928Z,6.93
2019-03-25T01:11:49.343Z,9.73
2019-03-25T01:14:17.088Z,8.47
2019-03-25T01:16:45.651Z,2.70
2019-03-25T01:19:14.226Z,7.13
2019-03-25T01:21:42.803Z,7.17
2019-03-25T01:24:11.397Z,6.77
2019-03-25T01:26:39.938Z,5.70
2019-03-25T01:29:08.575Z,9.93
2019-03-25T01:31:37.157Z,6.97
2019-03-25T01:34:05.858Z,5.67
2019-03-25T01:36:34.445Z,4.67
2019-03-25T01:39:04.884Z,6.13
2019-03-25T01:41:33.450Z,6.90
2019-03-25T01:44:02.104Z,4.10
2019-03-25T01:46:30.666Z,6.10
2019-03-25T01:48:59.238Z,5.77
2019-03-25T01:51:27.878Z,8.97
2019-03-25T01:53:56.454Z,8.17
2019-03-25T01:56:25.017Z,2.77
2019-03-25T01:58:53.822Z,10.60
2019-03-25T02:01:22.386Z,8.80
2019-03-25T02:03:50.950Z,6.33
2019-03-25T02:06:19.522Z,7.10
2019-03-25T02:08:48.158Z,8.07
2019-03-25T02:11:16.806Z,8.93
2019-03-25T02:13:45.426Z,8.07
2019-03-25T02:16:14.070Z,6.17
2019-03-25T02:18:42.638Z,10.37
2019-03-25T02:21:11.223Z,7.40
2019-03-25T02:23:39.804Z,11.33
2019-03-25T02:26:08.372Z,4.83
2019-03-25T02:28:37.014Z,4.47
2019-03-25T02:31:05.578Z,4.57
2019-03-25T02:33:34.156Z,11.37
2019-03-25T02:36:02.793Z,9.57
2019-03-25T02:38:31.451Z,5.40
2019-03-25T02:41:00.012Z,10.83
2019-03-25T02:43:28.596Z,6.73
2019-03-25T02:45:57.159Z,5.53
2019-03-25T02:48:25.754Z,5.53
2019-03-25T02:50:54.323Z,13.43
2019-03-25T02:53:22.885Z,7.97
2019-03-25T02:55:51.594Z,9.13
2019-03-25T02:58:20.135Z,7.60
2019-03-25T03:00:48.776Z,8.00
2019-03-25T03:03:17.337Z,9.40
2019-03-25T03:05:45.929Z,11.53
2019-03-25T03:08:14.498Z,9.97
2019-03-25T03:10:43.051Z,6.90
2019-03-25T03:13:11.634Z,13.43
2019-03-25T03:15:40.206Z,7.70
2019-03-25T03:18:08.782Z,8.73
2019-03-25T03:20:37.350Z,11.70
2019-03-25T03:23:06.001Z,6.43
2019-03-25T03:25:34.610Z,8.73
2019-03-25T03:28:03.544Z,13.93
2019-03-25T03:30:32.270Z,12.00
2019-03-25T03:33:00.834Z,9.77
2019-03-25T03:35:29.406Z,9.70
2019-03-25T03:37:57.967Z,7.93
2019-03-25T03:40:26.545Z,15.00
2019-03-25T03:42:55.116Z,14.53
2019-03-25T03:45:23.822Z,9.97
2019-03-25T03:47:52.398Z,11.37
2019-03-25T03:50:25.604Z,10.07
2019-03-25T03:52:55.408Z,10.73
2019-03-25T03:55:24.610Z,7.87
2019-03-25T03:57:55.027Z,13.13
2019-03-25T04:00:34.159Z,6.57
2019-03-25T04:03:03.085Z,10.53
2019-03-25T04:05:32.078Z,7.73
2019-03-25T04:08:00.825Z,13.67
2019-03-25T04:10:29.528Z,12.67
2019-03-25T04:12:58.106Z,17.40
2019-03-25T04:15:28.626Z,6.87
2019-03-25T04:17:57.833Z,9.90
2019-03-25T04:20:26.472Z,9.53
2019-03-25T04:22:55.038Z,16.87
2019-03-25T04:25:23.683Z,9.97
2019-03-25T04:27:52.337Z,16.47
2019-03-25T04:30:21.058Z,9.60
2019-03-25T04:32:49.637Z,9.33
2019-03-25T04:35:18.274Z,6.63
2019-03-25T04:37:46.906Z,6.70
2019-03-25T04:40:15.762Z,15.90
2019-03-25T04:42:44.322Z,6.23
2019-03-25T04:45:13.026Z,8.70
2019-03-25T04:47:41.607Z,8.80
2019-03-25T04:50:10.408Z,9.10
2019-03-25T04:52:38.983Z,9.40
2019-03-25T04:55:07.998Z,6.30
2019-03-25T04:57:36.566Z,7.17
2019-03-25T05:00:06.270Z,12.97
2019-03-25T05:02:34.933Z,7.20
2019-03-25T05:05:03.750Z,7.47
2019-03-25T05:07:32.414Z,15.97
2019-03-25T05:10:01.003Z,13.43
2019-03-25T05:12:29.566Z,15.50
2019-03-25T05:14:58.143Z,12.17
2019-03-25T05:17:26.710Z,13.97
2019-03-25T05:19:55.290Z,9.40
2019-03-25T05:22:23.951Z,10.73
2019-03-25T05:24:52.554Z,6.40
2019-03-25T05:27:21.134Z,11.83
2019-03-25T05:29:49.698Z,4.67
2019-03-25T05:32:18.630Z,8.83
2019-03-25T05:34:47.321Z,8.97
2019-03-25T05:37:15.846Z,5.57
2019-03-25T05:39:44.510Z,7.07
2019-03-25T05:42:14.384Z,9.93
2019-03-25T05:44:42.994Z,11.10
2019-03-25T05:47:11.711Z,5.60
2019-03-25T05:49:40.418Z,5.73
2019-03-25T05:52:09.159Z,7.67
2019-03-25T05:54:37.801Z,8.00
2019-03-25T05:57:06.530Z,7.60
2019-03-25T05:59:35.158Z,13.30
2019-03-25T06:02:05.206Z,8.53
2019-03-25T06:04:33.785Z,7.23
2019-03-25T06:07:02.355Z,3.80
2019-03-25T06:09:31.762Z,6.87
2019-03-25T06:12:00.400Z,7.63
2019-03-25T06:14:29.045Z,7.37
2019-03-25T06:16:57.606Z,7.83
2019-03-25T06:19:26.294Z,4.37
2019-03-25T06:21:54.918Z,4.50
2019-03-25T06:24:23.574Z,4.20
2019-03-25T06:26:52.164Z,7.67
2019-03-25T06:29:20.754Z,4.93
2019-03-25T06:31:49.428Z,4.97
2019-03-25T06:34:17.982Z,11.60
2019-03-25T06:36:46.562Z,6.67
2019-03-25T06:39:15.147Z,5.15
2019-03-25T06:41:43.718Z,7.85
2019-03-25T06:44:12.301Z,7.62
2019-03-25T06:46:40.878Z,7.67
2019-03-25T06:49:09.491Z,4.25
2019-03-25T06:51:38.059Z,7.33
2019-03-25T06:54:06.666Z,9.08
2019-03-25T06:56:35.249Z,8.43
2019-03-25T06:59:03.876Z,5.13
2019-03-25T07:01:32.606Z,4.13
2019-03-25T07:04:01.174Z,6.37
2019-03-25T07:06:29.765Z,8.40
2019-03-25T07:08:58.478Z,11.03
2019-03-25T07:11:27.122Z,6.03
2019-03-25T07:13:56.126Z,10.30
2019-03-25T07:16:24.713Z,6.03
2019-03-25T07:18:53.359Z,10.93
2019-03-25T07:21:22.034Z,13.40
2019-03-25T07:23:50.606Z,8.20
2019-03-25T07:26:19.174Z,7.27
2019-03-25T07:28:47.826Z,4.70
2019-03-25T07:31:16.383Z,6.60
2019-03-25T07:33:45.006Z,6.90
2019-03-25T07:36:13.638Z,7.90
2019-03-25T07:38:42.210Z,12.23
2019-03-25T07:41:10.782Z,8.17
2019-03-25T07:43:39.369Z,12.83
2019-03-25T07:46:07.926Z,9.47
2019-03-25T07:48:36.506Z,11.20
2019-03-25T07:51:05.158Z,12.83
2019-03-25T07:53:33.786Z,11.60
2019-03-25T07:56:02.361Z,9.60
2019-03-25T07:58:30.993Z,10.47
2019-03-25T08:00:59.754Z,10.67
2019-03-25T08:03:28.391Z,12.90
2019-03-25T08:05:56.991Z,7.53
2019-03-25T08:08:25.551Z,9.83
2019-03-25T08:10:54.108Z,10.13
2019-03-25T08:13:22.803Z,7.43
2019-03-25T08:15:51.478Z,9.37
2019-03-25T08:18:20.026Z,10.00
2019-03-25T08:20:48.594Z,6.80
2019-03-25T08:23:17.242Z,8.33
2019-03-25T08:25:45.814Z,12.60
2019-03-25T08:28:14.477Z,9.20
2019-03-25T08:30:43.050Z,7.17
2019-03-25T08:33:11.754Z,11.33
2019-03-25T08:35:40.406Z,12.57
2019-03-25T08:38:09.039Z,6.17
2019-03-25T08:40:37.682Z,11.60
2019-03-25T08:43:06.386Z,10.40
2019-03-25T08:45:35.202Z,8.57
2019-03-25T08:48:03.926Z,9.23
2019-03-25T08:50:32.486Z,8.27
2019-03-25T08:53:01.117Z,13.37
2019-03-25T08:55:29.866Z,10.93
2019-03-25T08:57:58.426Z,10.57
2019-03-25T09:00:27.155Z,5.67
2019-03-25T09:02:55.721Z,6.57
2019-03-25T09:05:24.310Z,10.83
2019-03-25T09:07:52.879Z,7.20
2019-03-25T09:10:21.522Z,6.73
2019-03-25T09:12:50.164Z,7.87
2019-03-25T09:15:19.174Z,8.10
2019-03-25T09:17:47.822Z,5.83
2019-03-25T09:20:16.630Z,8.17
2019-03-25T09:22:45.370Z,5.90
2019-03-25T09:25:14.474Z,9.93
2019-03-25T09:27:43.042Z,7.90
2019-03-25T09:30:12.731Z,4.17
2019-03-25T09:32:41.318Z,9.97
2019-03-25T09:35:10.333Z,4.97
2019-03-25T09:37:39.745Z,4.97
2019-03-25T09:40:09.798Z,5.22
2019-03-25T09:42:38.540Z,3.77
2019-03-25T09:45:08.549Z,5.00
2019-03-25T09:47:37.966Z,5.00
2019-03-25T09:50:08.481Z,7.47
2019-03-25T09:52:38.777Z,5.00
2019-03-25T09:55:09.183Z,6.70
2019-03-25T09:57:57.118Z,4.50
2019-03-25T10:00:32.670Z,8.10
2019-03-25T10:03:01.516Z,8.10
2019-03-25T10:05:30.154Z,6.53
2019-03-25T10:07:58.746Z,10.63
2019-03-25T10:10:27.319Z,12.00
2019-03-25T10:12:56.911Z,6.70
2019-03-25T10:15:25.582Z,8.37
2019-03-25T10:17:54.702Z,8.90
2019-03-25T10:20:23.346Z,4.60
2019-03-25T10:22:51.916Z,6.63
2019-03-25T10:25:20.498Z,7.73
2019-03-25T10:27:49.134Z,6.93
2019-03-25T10:30:18.263Z,7.67
2019-03-25T10:32:47.084Z,8.07
2019-03-25T10:35:15.832Z,9.43
2019-03-25T10:37:45.438Z,5.10
2019-03-25T10:40:14.551Z,8.87
2019-03-25T10:42:43.270Z,11.73
2019-03-25T10:45:12.854Z,9.03
2019-03-25T10:47:41.578Z,9.10
2019-03-25T10:50:11.455Z,6.72
2019-03-25T10:52:40.046Z,9.37
2019-03-25T10:55:08.966Z,8.40
2019-03-25T10:57:37.715Z,4.13
2019-03-25T11:00:30.098Z,7.70
2019-03-25T11:02:58.754Z,4.97
2019-03-25T11:05:27.406Z,9.67
2019-03-25T11:07:55.978Z,5.63
2019-03-25T11:10:24.691Z,8.57
2019-03-25T11:12:53.262Z,8.83
2019-03-25T11:15:22.078Z,6.30
2019-03-25T11:17:50.662Z,6.70
2019-03-25T11:20:19.658Z,4.57
2019-03-25T11:22:48.307Z,5.17
2019-03-25T11:25:17.224Z,7.20
2019-03-25T11:27:54.112Z,4.97
2019-03-25T11:30:17.618Z,8.27
2019-03-25T11:32:46.197Z,8.37
2019-03-25T11:35:15.008Z,6.00
2019-03-25T11:37:43.586Z,10.53
2019-03-25T11:40:12.790Z,3.80
2019-03-25T11:42:41.358Z,5.70
2019-03-25T11:45:10.974Z,4.97
2019-03-25T11:47:39.614Z,6.57
2019-03-25T11:50:08.537Z,4.97
2019-03-25T11:52:37.185Z,4.20
2019-03-25T11:55:08.855Z,3.60
2019-03-25T11:57:37.422Z,3.77
2019-03-25T12:00:08.009Z,5.90
2019-03-25T12:02:36.717Z,3.13
2019-03-25T12:05:07.026Z,2.17
2019-03-25T12:07:35.671Z,5.65
2019-03-25T12:10:06.174Z,3.23
2019-03-25T12:12:34.768Z,2.47
2019-03-25T12:15:04.621Z,2.67
2019-03-25T12:17:33.196Z,2.98
2019-03-25T12:20:01.771Z,5.27
2019-03-25T12:22:30.414Z,1.80
2019-03-25T12:24:58.983Z,2.77
2019-03-25T12:27:27.615Z,2.57
2019-03-25T12:29:56.247Z,2.17
2019-03-25T12:32:24.896Z,4.62
2019-03-25T12:34:53.470Z,5.72
2019-03-25T12:37:22.111Z,4.25
2019-03-25T12:39:50.703Z,3.52
2019-03-25T12:42:19.343Z,8.13
2019-03-25T12:44:48.005Z,2.33
2019-03-25T12:47:16.642Z,3.83
2019-03-25T12:49:45.233Z,2.17
2019-03-25T12:52:13.871Z,1.70
2019-03-25T12:54:42.466Z,1.40
2019-03-25T12:57:11.050Z,2.50
2019-03-25T12:59:41.588Z,2.00
2019-03-25T13:02:09.877Z,1.82
2019-03-25T13:04:38.447Z,1.87
2019-03-25T13:07:07.094Z,1.47
2019-03-25T13:09:35.666Z,1.98
2019-03-25T13:12:04.427Z,2.62
2019-03-25T13:14:35.078Z,2.47
2019-03-25T13:17:03.234Z,5.25
2019-03-25T13:19:31.818Z,1.77
2019-03-25T13:22:00.398Z,2.00
2019-03-25T13:24:28.979Z,2.15
2019-03-25T13:26:57.546Z,1.23
2019-03-25T13:29:26.194Z,1.80
2019-03-25T13:31:54.763Z,1.65
2019-03-25T13:34:23.350Z,4.57
2019-03-25T13:36:51.938Z,1.27
2019-03-25T13:39:20.515Z,3.67
2019-03-25T13:41:49.093Z,2.45
2019-03-25T13:44:17.662Z,2.47
2019-03-25T13:46:46.247Z,1.37
2019-03-25T13:49:14.814Z,2.77
2019-03-25T13:51:43.394Z,0.57
2019-03-25T13:54:11.964Z,1.35
2019-03-25T13:56:40.554Z,1.15
2019-03-25T13:59:09.140Z,3.02
2019-03-25T14:01:37.717Z,4.08
2019-03-25T14:04:06.298Z,1.98
2019-03-25T14:06:34.867Z,1.32
2019-03-25T14:09:04.912Z,2.40
2019-03-25T14:11:33.470Z,1.10
2019-03-25T14:14:02.063Z,1.20
2019-03-25T14:16:30.686Z,2.47
2019-03-25T14:18:59.282Z,2.52
2019-03-25T14:21:27.918Z,4.00
2019-03-25T14:23:56.499Z,3.17
2019-03-25T14:26:25.082Z,2.62
2019-03-25T14:28:53.649Z,2.20
2019-03-25T14:31:22.230Z,7.05
2019-03-25T14:33:50.798Z,5.17
2019-03-25T14:36:19.380Z,2.70
2019-03-25T14:38:47.946Z,3.20
2019-03-25T14:41:16.537Z,3.75
2019-03-25T14:43:45.102Z,1.90
2019-03-25T14:46:13.750Z,1.70
2019-03-25T14:48:42.347Z,5.35
2019-03-25T14:51:10.986Z,1.75
2019-03-25T14:53:45.128Z,1.03
2019-03-25T14:56:09.858Z,1.53
2019-03-25T14:58:38.438Z,4.85
2019-03-25T15:01:07.078Z,1.10
2019-03-25T15:03:35.686Z,1.98
2019-03-25T15:06:04.394Z,2.33
2019-03-25T15:08:32.970Z,5.08
2019-03-25T15:11:01.554Z,1.37
2019-03-25T15:13:30.263Z,2.15
2019-03-25T15:15:58.906Z,1.83
2019-03-25T15:18:27.546Z,1.02
2019-03-25T15:20:56.126Z,0.70
2019-03-25T15:23:24.695Z,5.40
2019-03-25T15:25:53.298Z,0.93
2019-03-25T15:28:21.995Z,0.67
2019-03-25T15:30:50.562Z,1.07
2019-03-25T15:33:19.229Z,1.23
2019-03-25T15:35:47.800Z,5.17
2019-03-25T15:38:16.448Z,0.77
2019-03-25T15:40:45.014Z,2.50
2019-03-25T15:43:13.611Z,1.90
2019-03-25T15:45:42.246Z,3.37
2019-03-25T15:48:11.042Z,1.17
2019-03-25T15:50:39.608Z,2.10
2019-03-25T15:53:08.170Z,2.03
2019-03-25T15:55:36.753Z,0.53
2019-03-25T15:58:05.574Z,0.60
2019-03-25T16:00:34.150Z,2.47
2019-03-25T16:03:02.850Z,1.30
2019-03-25T16:05:31.578Z,2.13
2019-03-25T16:08:00.142Z,2.90
2019-03-25T16:10:28.818Z,4.77
2019-03-25T16:12:57.409Z,1.53
2019-03-25T16:15:44.963Z,1.13
2019-03-25T16:18:33.114Z,2.37
2019-03-25T16:21:02.014Z,1.20
2019-03-25T16:23:30.582Z,2.93
2019-03-25T16:25:59.146Z,1.17
2019-03-25T16:28:27.797Z,2.17
2019-03-25T16:30:59.075Z,4.93
2019-03-25T16:33:26.710Z,3.33
2019-03-25T16:35:55.463Z,7.80
2019-03-25T16:38:24.061Z,5.90
2019-03-25T16:40:52.787Z,0.90
2019-03-25T16:43:21.405Z,1.87
2019-03-25T16:45:49.992Z,1.97
2019-03-25T16:48:20.372Z,1.80
2019-03-25T16:50:48.941Z,3.27
2019-03-25T16:53:17.603Z,3.43
2019-03-25T16:55:46.189Z,1.00
2019-03-25T16:58:14.778Z,1.53
2019-03-25T17:00:43.455Z,4.00
2019-03-25T17:03:12.019Z,6.37
2019-03-25T17:05:42.462Z,1.00
2019-03-25T17:08:10.806Z,2.23
2019-03-25T17:10:39.372Z,6.63
2019-03-25T17:13:07.950Z,3.97
2019-03-25T17:15:36.591Z,3.17
2019-03-25T17:18:05.224Z,2.57
2019-03-25T17:20:33.786Z,2.90
2019-03-25T17:23:02.438Z,3.83
2019-03-25T17:25:31.075Z,3.17
2019-03-25T17:27:59.706Z,6.40
2019-03-25T17:30:28.350Z,2.43
2019-03-25T17:32:56.962Z,2.50
2019-03-25T17:35:25.607Z,4.20
2019-03-25T17:37:54.162Z,2.20
2019-03-25T17:40:22.843Z,4.07
2019-03-25T17:42:51.406Z,7.17
2019-03-25T17:45:20.451Z,3.07
2019-03-25T17:47:49.014Z,1.87
2019-03-25T17:50:17.735Z,2.80
2019-03-25T17:52:46.422Z,1.27
2019-03-25T17:55:15.232Z,5.77
2019-03-25T17:57:43.892Z,1.77
2019-03-25T18:00:13.909Z,5.33
2019-03-25T18:02:42.547Z,1.03
2019-03-25T18:05:11.275Z,1.07
2019-03-25T18:07:40.102Z,2.57
2019-03-25T18:10:09.208Z,2.90
2019-03-25T18:12:39.003Z,4.73
2019-03-25T18:15:10.054Z,5.03
2019-03-25T18:17:40.332Z,9.83
2019-03-25T18:20:18.252Z,2.87
2019-03-25T18:22:40.144Z,3.47
2019-03-25T18:25:09.330Z,2.97
2019-03-25T18:27:40.646Z,4.50
2019-03-25T18:30:09.867Z,1.63
2019-03-25T18:32:38.466Z,1.30
2019-03-25T18:35:07.165Z,4.50
2019-03-25T18:37:35.820Z,4.07
2019-03-25T18:40:05.227Z,3.77
2019-03-25T18:42:33.806Z,2.23
2019-03-25T18:45:02.710Z,5.07
2019-03-25T18:47:32.654Z,1.13
2019-03-25T18:50:01.290Z,1.67
2019-03-25T18:52:29.956Z,2.03
2019-03-25T18:54:58.610Z,2.23
2019-03-25T18:57:27.293Z,0.83
2019-03-25T18:59:55.862Z,1.50
2019-03-25T19:02:24.426Z,4.03
2019-03-25T19:04:53.002Z,1.33
2019-03-25T19:07:21.907Z,3.67
2019-03-25T19:09:53.722Z,5.37
2019-03-25T19:12:23.069Z,2.33
2019-03-25T19:14:51.652Z,4.10
2019-03-25T19:17:20.230Z,1.20
2019-03-25T19:19:48.794Z,2.57
2019-03-25T19:22:17.380Z,4.63
2019-03-25T19:24:45.960Z,4.77
2019-03-25T19:27:14.528Z,2.70
2019-03-25T19:29:43.101Z,2.77
2019-03-25T19:32:11.731Z,2.27
2019-03-25T19:34:40.371Z,3.27
2019-03-25T19:37:09.042Z,0.60
2019-03-25T19:39:37.602Z,1.90
2019-03-25T19:42:06.262Z,2.93
2019-03-25T19:44:34.826Z,2.77
2019-03-25T19:47:03.518Z,3.63
2019-03-25T19:49:32.141Z,10.40
2019-03-25T19:52:00.755Z,2.03
2019-03-25T19:54:29.307Z,4.00
2019-03-25T19:56:57.898Z,3.03
2019-03-25T19:59:26.686Z,5.47
2019-03-25T20:01:55.231Z,3.77
2019-03-25T20:04:23.821Z,3.93
2019-03-25T20:06:52.366Z,0.90
2019-03-25T20:09:20.955Z,3.07
2019-03-25T20:11:49.555Z,5.57
2019-03-25T20:14:18.109Z,3.03
2019-03-25T20:16:46.654Z,1.00
2019-03-25T20:19:15.238Z,1.50
2019-03-25T20:21:43.972Z,3.17
2019-03-25T20:24:12.546Z,5.63
2019-03-25T20:26:41.114Z,1.93
2019-03-25T20:29:09.758Z,1.33
2019-03-25T20:31:38.367Z,3.07
2019-03-25T20:34:11.247Z,2.30
2019-03-25T20:36:37.259Z,5.13
2019-03-25T20:39:08.325Z,2.20
2019-03-25T20:41:36.925Z,1.60
2019-03-25T20:44:06.128Z,1.30
2019-03-25T20:46:34.705Z,1.30
2019-03-25T20:49:03.266Z,1.60
2019-03-25T20:51:31.910Z,5.03
2019-03-25T20:54:00.441Z,2.17
2019-03-25T20:56:29.129Z,1.43
2019-03-25T20:58:57.726Z,4.83
2019-03-25T21:01:26.543Z,2.80
2019-03-25T21:03:55.139Z,2.37
2019-03-25T21:06:23.724Z,3.47
2019-03-25T21:08:52.354Z,3.23
2019-03-25T21:11:21.044Z,3.07
2019-03-25T21:13:49.650Z,5.50
2019-03-25T21:16:18.315Z,1.83
2019-03-25T21:18:47.005Z,4.77
2019-03-25T21:21:15.790Z,3.77
2019-03-25T21:23:44.336Z,8.37
2019-03-25T21:26:13.048Z,3.47
2019-03-25T21:28:41.849Z,3.70
2019-03-25T21:31:10.380Z,1.17
2019-03-25T21:33:38.973Z,1.63
2019-03-25T21:36:07.604Z,2.40
2019-03-25T21:38:36.231Z,4.03
2019-03-25T21:41:05.083Z,2.83
2019-03-25T21:43:33.737Z,2.80
2019-03-25T21:46:02.443Z,2.40
2019-03-25T21:48:31.155Z,4.67
2019-03-25T21:50:59.834Z,1.87
2019-03-25T21:53:28.421Z,1.87
2019-03-25T21:55:57.031Z,1.67
2019-03-25T21:58:25.629Z,2.80
2019-03-25T22:00:54.237Z,3.53
2019-03-25T22:03:22.796Z,2.33
2019-03-25T22:05:51.363Z,2.10
2019-03-25T22:08:19.931Z,1.53
2019-03-25T22:10:48.490Z,4.10
2019-03-25T22:13:17.262Z,2.50
2019-03-25T22:15:45.839Z,2.87
2019-03-25T22:18:14.401Z,2.27
2019-03-25T22:20:42.982Z,1.63
2019-03-25T22:23:11.547Z,4.37
2019-03-25T22:25:40.168Z,2.50
2019-03-25T22:28:08.731Z,1.07
2019-03-25T22:30:37.306Z,1.33
2019-03-25T22:33:05.962Z,2.53
2019-03-25T22:35:34.548Z,2.93
2019-03-25T22:38:03.287Z,1.77
2019-03-25T22:40:31.851Z,2.30
2019-03-25T22:43:00.426Z,6.10
2019-03-25T22:45:29.826Z,2.70
2019-03-25T22:47:58.462Z,3.60
2019-03-25T22:50:31.426Z,2.10
2019-03-25T22:53:00.126Z,2.83
2019-03-25T22:55:28.832Z,3.50
2019-03-25T22:57:57.482Z,1.47
2019-03-25T23:00:27.766Z,3.23
2019-03-25T23:02:56.494Z,6.03
2019-03-25T23:05:25.083Z,2.20
2019-03-25T23:07:53.775Z,5.07
2019-03-25T23:10:22.367Z,3.27
2019-03-25T23:12:51.008Z,2.57
2019-03-25T23:15:19.578Z,1.37
2019-03-25T23:20:18.110Z,1.73
2019-03-25T23:22:46.742Z,2.47
2019-03-25T23:25:15.307Z,1.50
2019-03-25T23:27:43.961Z,17.30
2019-03-25T23:30:14.226Z,5.67
2019-03-25T23:32:42.794Z,2.53
2019-03-25T23:35:11.430Z,8.30
2019-03-25T23:37:40.006Z,1.23
2019-03-25T23:40:08.642Z,5.87
2019-03-25T23:42:37.230Z,7.03
2019-03-25T23:45:07.043Z,3.33
2019-03-25T23:47:35.674Z,1.50
2019-03-25T23:50:05.896Z,2.67
2019-03-25T23:52:34.454Z,1.70
2019-03-25T23:55:03.270Z,4.00
2019-03-25T23:57:31.834Z,2.50
